Time;durP1;ratioP1;P1;durP2;ratioP2;P2;SDS_P1;SDS_P2;PMS_P1;PMS_P2;Temp;Humidity;BMP_temperature;BMP_pressure;BME280_temperature;BME280_humidity;BME280_pressure;Samples;Min_cycle;Max_cycle;Signal;HPM_P1;HPM_P2
2021/06/26 00:02:21;;;;;;;8.25;6.68;;;;;;;20.70;34.60;101450.47;3576843;40;20041;-72
2021/06/26 00:04:50;;;;;;;9.52;6.90;;;;;;;20.68;34.77;101449.78;3577956;40;20056;-72
2021/06/26 00:07:18;;;;;;;9.48;6.68;;;;;;;20.67;34.84;101450.81;3578785;40;20405;-73
2021/06/26 00:09:47;;;;;;;10.55;6.65;;;;;;;20.67;34.25;101449.94;3575199;40;20061;-72
2021/06/26 00:12:16;;;;;;;9.75;7.28;;;;;;;20.62;34.93;101450.50;3576374;40;20057;-72
2021/06/26 00:14:45;;;;;;;9.68;6.65;;;;;;;20.60;34.81;101446.19;3558466;40;20045;-72
2021/06/26 00:17:13;;;;;;;8.70;6.80;;;;;;;20.56;34.99;101442.91;3573235;40;20377;-71
2021/06/26 00:19:41;;;;;;;7.90;6.03;;;;;;;20.54;34.75;101438.59;3566211;40;20055;-72
2021/06/26 00:22:10;;;;;;;9.02;6.70;;;;;;;20.51;34.97;101437.03;3568446;40;20053;-72
2021/06/26 00:24:39;;;;;;;7.93;6.10;;;;;;;20.47;34.92;101438.47;3575679;40;20366;-71
2021/06/26 00:27:09;;;;;;;8.02;6.25;;;;;;;20.46;35.04;101439.50;3573831;40;20090;-71
2021/06/26 00:29:37;;;;;;;8.82;6.90;;;;;;;20.43;35.17;101436.22;3577612;40;20053;-71
2021/06/26 00:32:06;;;;;;;8.93;6.53;;;;;;;20.41;34.52;101433.66;3575206;40;20073;-71
2021/06/26 00:34:34;;;;;;;8.93;6.45;;;;;;;20.40;34.68;101442.16;3576940;40;20331;-72
2021/06/26 00:37:03;;;;;;;10.20;7.43;;;;;;;20.38;34.92;101442.34;3574124;40;20064;-72
2021/06/26 00:39:31;;;;;;;8.48;6.97;;;;;;;20.38;35.24;101445.13;3576756;40;20044;-71
2021/06/26 00:42:02;;;;;;;8.80;7.10;;;;;;;20.39;34.80;101454.31;3576538;40;20387;-71
2021/06/26 00:44:32;;;;;;;9.10;6.38;;;;;;;20.39;34.89;101448.75;3577842;40;20318;-71
2021/06/26 00:47:02;;;;;;;10.00;7.80;;;;;;;20.37;35.33;101448.06;3575689;40;20085;-71
2021/06/26 00:49:30;;;;;;;10.68;8.15;;;;;;;20.33;34.77;101438.38;3571638;40;20089;-71
2021/06/26 00:51:59;;;;;;;11.48;8.02;;;;;;;20.31;35.23;101442.22;3576111;40;20056;-71
2021/06/26 00:54:27;;;;;;;10.25;7.72;;;;;;;20.30;35.16;101440.47;3579314;40;20417;-72
2021/06/26 00:56:56;;;;;;;9.95;7.35;;;;;;;20.29;34.65;101430.41;3575209;40;20080;-71
2021/06/26 00:59:25;;;;;;;11.38;8.13;;;;;;;20.27;34.85;101429.72;3575002;40;20086;-71
2021/06/26 01:01:54;;;;;;;11.25;8.25;;;;;;;20.26;35.43;101430.75;3577124;40;20049;-71
2021/06/26 01:04:23;;;;;;;13.05;7.97;;;;;;;20.23;34.95;101433.91;3564213;40;20052;-72
2021/06/26 01:06:52;;;;;;;11.20;7.45;;;;;;;20.22;34.74;101428.53;3573894;40;20139;-71
2021/06/26 01:09:20;;;;;;;10.60;7.57;;;;;;;20.20;34.73;101437.00;3566109;40;20338;-72
2021/06/26 01:11:49;;;;;;;11.25;7.53;;;;;;;20.18;34.83;101441.88;3567198;40;20305;-72
2021/06/26 01:14:19;;;;;;;10.18;7.07;;;;;;;20.17;35.35;101442.09;3577776;40;20065;-71
2021/06/26 01:16:47;;;;;;;9.25;7.13;;;;;;;20.16;35.07;101435.66;3577004;40;20167;-72
2021/06/26 01:19:17;;;;;;;9.80;7.20;;;;;;;20.17;34.91;101437.38;3569512;40;20053;-72
2021/06/26 01:21:45;;;;;;;9.32;7.05;;;;;;;20.15;34.75;101439.47;3564167;40;20147;-71
2021/06/26 01:24:15;;;;;;;9.57;6.78;;;;;;;20.16;34.95;101440.34;3576482;40;20049;-72
2021/06/26 01:26:43;;;;;;;9.10;6.85;;;;;;;20.13;35.50;101437.91;3573629;40;20063;-71
2021/06/26 01:29:12;;;;;;;9.93;6.80;;;;;;;20.13;34.76;101432.38;3578792;40;20061;-72
2021/06/26 01:31:41;;;;;;;10.80;7.28;;;;;;;20.11;35.44;101432.53;3576817;40;20045;-71
2021/06/26 01:34:09;;;;;;;9.20;7.13;;;;;;;20.09;35.25;101434.63;3578262;40;20112;-71
2021/06/26 01:36:37;;;;;;;12.07;7.40;;;;;;;20.07;35.00;101436.75;3577177;40;20048;-71
2021/06/26 01:39:06;;;;;;;10.77;7.15;;;;;;;20.04;35.24;101439.00;3571511;40;20060;-71
2021/06/26 01:41:35;;;;;;;10.02;7.53;;;;;;;20.01;35.64;101445.78;3577383;40;20135;-71
2021/06/26 01:44:04;;;;;;;9.30;6.80;;;;;;;19.95;35.25;101439.03;3573422;40;20143;-71
2021/06/26 01:46:33;;;;;;;11.10;8.00;;;;;;;19.91;35.80;101436.81;3573880;40;20053;-71
2021/06/26 01:49:09;;;;;;;10.48;7.53;;;;;;;19.89;35.44;101439.78;3574552;40;20063;-71
2021/06/26 01:51:39;;;;;;;10.57;7.57;;;;;;;19.83;35.64;101434.94;3567754;40;20042;-71
2021/06/26 01:54:08;;;;;;;10.25;7.47;;;;;;;19.81;35.85;101445.34;3575619;40;20387;-71
2021/06/26 01:56:39;;;;;;;9.32;7.05;;;;;;;19.80;36.02;101432.50;3573020;40;20097;-72
2021/06/26 01:59:08;;;;;;;9.55;7.00;;;;;;;19.76;36.12;101439.44;3569593;40;20326;-72
2021/06/26 02:01:38;;;;;;;10.07;7.28;;;;;;;19.74;36.15;101441.56;3577277;40;20084;-72
2021/06/26 02:04:06;;;;;;;10.15;7.55;;;;;;;19.72;36.05;101428.91;3578260;40;20049;-72
2021/06/26 02:06:35;;;;;;;11.07;7.97;;;;;;;19.70;36.26;101433.75;3567200;40;21276;-71
2021/06/26 02:09:04;;;;;;;10.57;7.82;;;;;;;19.68;36.31;101422.00;3576767;40;20306;-72
2021/06/26 02:11:32;;;;;;;11.15;8.23;;;;;;;19.65;36.27;101419.56;3574430;40;20044;-72
2021/06/26 02:14:02;;;;;;;13.05;8.80;;;;;;;19.63;36.15;101425.28;3577964;40;20126;-72
2021/06/26 02:16:30;;;;;;;11.20;8.05;;;;;;;19.59;36.22;101420.28;3576555;40;20134;-72
2021/06/26 02:18:59;;;;;;;10.70;7.72;;;;;;;19.55;36.41;101426.16;3571804;40;20056;-71
2021/06/26 02:21:27;;;;;;;10.98;7.90;;;;;;;19.52;36.42;101423.75;3570896;40;20150;-72
2021/06/26 02:23:55;;;;;;;11.50;7.00;;;;;;;19.52;36.13;101425.66;3571656;40;20079;-72
2021/06/26 02:26:23;;;;;;;12.00;8.02;;;;;;;19.49;36.27;101423.22;3567191;40;20048;-72
2021/06/26 02:28:52;;;;;;;10.13;7.72;;;;;;;19.48;36.63;101429.81;3564305;40;20060;-71
2021/06/26 02:31:21;;;;;;;12.93;9.18;;;;;;;19.47;36.58;101423.38;3572618;40;20063;-71
2021/06/26 02:33:49;;;;;;;11.35;9.00;;;;;;;19.44;36.36;101420.09;3576041;40;20129;-71
2021/06/26 02:36:18;;;;;;;13.07;8.40;;;;;;;19.42;36.72;101427.75;3573530;40;20081;-72
2021/06/26 02:38:46;;;;;;;12.65;7.95;;;;;;;19.39;36.18;101428.94;3574541;40;20134;-72
2021/06/26 02:41:14;;;;;;;10.52;7.60;;;;;;;19.37;36.28;101422.72;3572715;40;20045;-71
2021/06/26 02:43:43;;;;;;;11.18;7.43;;;;;;;19.36;36.38;101420.09;3576517;40;20037;-71
2021/06/26 02:46:11;;;;;;;11.45;7.72;;;;;;;19.35;36.25;101418.41;3574253;40;20142;-71
2021/06/26 02:48:41;;;;;;;10.30;7.57;;;;;;;19.36;36.89;101414.56;3573636;40;20069;-71
2021/06/26 02:51:09;;;;;;;10.93;7.85;;;;;;;19.34;36.40;101416.66;3575093;40;20056;-72
2021/06/26 02:53:37;;;;;;;10.65;7.93;;;;;;;19.33;36.57;101415.78;3578050;40;20084;-71
2021/06/26 02:56:06;;;;;;;11.98;8.23;;;;;;;19.34;36.27;101419.44;3576061;40;20053;-71
2021/06/26 02:58:34;;;;;;;9.73;7.43;;;;;;;19.33;36.86;101415.78;3574945;40;20049;-72
2021/06/26 03:01:03;;;;;;;10.57;7.70;;;;;;;19.34;36.80;101414.75;3576839;40;20053;-72
2021/06/26 03:03:32;;;;;;;10.20;7.47;;;;;;;19.35;36.26;101421.19;3577382;40;20401;-71
2021/06/26 03:06:01;;;;;;;11.07;8.05;;;;;;;19.37;36.73;101430.16;3575124;40;20061;-72
2021/06/26 03:08:30;;;;;;;10.20;7.80;;;;;;;19.35;36.41;101424.78;3575923;40;20286;-71
2021/06/26 03:10:59;;;;;;;11.65;7.93;;;;;;;19.36;36.97;101425.66;3575403;40;20063;-72
2021/06/26 03:13:28;;;;;;;12.07;8.48;;;;;;;19.35;36.82;101426.72;3576663;40;20056;-72
2021/06/26 03:15:56;;;;;;;12.07;8.88;;;;;;;19.35;36.59;101430.34;3578995;40;20149;-72
2021/06/26 03:18:26;;;;;;;11.45;8.63;;;;;;;19.35;36.52;101432.28;3574154;40;20081;-71
2021/06/26 03:20:55;;;;;;;10.60;7.63;;;;;;;19.35;36.41;101437.81;3567991;40;20049;-72
2021/06/26 03:23:24;;;;;;;10.50;7.93;;;;;;;19.36;36.29;101440.38;3568491;40;20059;-72
2021/06/26 03:25:53;;;;;;;11.88;8.20;;;;;;;19.35;36.88;101432.28;3575925;40;20048;-72
2021/06/26 03:28:21;;;;;;;11.38;7.97;;;;;;;19.33;36.28;101437.13;3574725;40;20065;-72
2021/06/26 03:30:49;;;;;;;11.27;7.70;;;;;;;19.32;36.88;101436.25;3575653;40;20093;-72
2021/06/26 03:33:17;;;;;;;11.82;7.93;;;;;;;19.31;36.67;101440.06;3572423;40;20049;-72
2021/06/26 03:35:46;;;;;;;11.57;7.97;;;;;;;19.31;36.47;101430.88;3574592;40;20149;-72
2021/06/26 03:38:14;;;;;;;11.45;7.20;;;;;;;19.29;36.48;101435.72;3573309;40;20080;-72
2021/06/26 03:40:44;;;;;;;11.02;7.53;;;;;;;19.31;36.83;101441.97;3576022;40;20433;-72
2021/06/26 03:43:12;;;;;;;11.60;7.60;;;;;;;19.27;37.08;101443.34;3568307;40;20099;-71
2021/06/26 03:45:40;;;;;;;10.98;7.75;;;;;;;19.27;36.56;101447.00;3576808;40;20133;-71
2021/06/26 03:48:08;;;;;;;9.77;6.95;;;;;;;19.26;37.09;101442.50;3576767;40;20056;-71
2021/06/26 03:50:40;;;;;;;10.82;7.35;;;;;;;19.26;36.56;101442.50;3573427;40;20049;-71
2021/06/26 03:53:09;;;;;;;11.00;7.28;;;;;;;19.25;36.55;101449.09;3566995;40;20056;-72
2021/06/26 03:55:38;;;;;;;10.13;7.43;;;;;;;19.24;37.14;101446.50;3575691;40;20199;-71
2021/06/26 04:01:40;;;;;;;10.20;7.45;;;;;;;19.18;36.82;101445.28;3509840;40;20289;-72
2021/06/26 04:04:09;;;;;;;10.30;7.13;;;;;;;19.20;37.30;101460.69;3550260;40;20052;-72
2021/06/26 04:06:38;;;;;;;12.35;8.50;;;;;;;19.22;36.82;101456.88;3576661;40;20211;-72
2021/06/26 04:09:06;;;;;;;11.77;8.27;;;;;;;19.20;37.29;101455.16;3576383;40;20133;-72
2021/06/26 04:11:35;;;;;;;12.43;8.30;;;;;;;19.19;37.34;101442.31;3576505;40;20051;-71
2021/06/26 04:14:04;;;;;;;12.23;7.75;;;;;;;19.21;37.11;101458.78;3576465;40;20053;-72
2021/06/26 04:16:34;;;;;;;10.98;7.80;;;;;;;19.17;37.50;101455.53;3574268;40;20061;-71
2021/06/26 04:19:03;;;;;;;11.00;7.95;;;;;;;19.16;37.25;101448.25;3571908;40;20057;-72
2021/06/26 04:21:31;;;;;;;12.15;8.15;;;;;;;19.15;37.67;101457.59;3577395;40;20174;-72
2021/06/26 04:23:59;;;;;;;12.80;8.65;;;;;;;19.15;37.26;101463.13;3576877;40;20052;-72
2021/06/26 04:26:28;;;;;;;14.32;8.95;;;;;;;19.14;37.21;101455.00;3576501;40;20305;-74
2021/06/26 04:28:57;;;;;;;12.70;8.27;;;;;;;19.12;37.38;101455.16;3576664;40;20056;-72
2021/06/26 04:31:26;;;;;;;10.55;7.93;;;;;;;19.14;37.88;101455.84;3567855;40;20057;-72
2021/06/26 04:33:54;;;;;;;11.35;8.20;;;;;;;19.11;37.28;101450.66;3574944;40;20053;-73
2021/06/26 04:36:23;;;;;;;11.55;8.80;;;;;;;19.11;38.01;101450.66;3574855;40;20128;-73
2021/06/26 04:38:51;;;;;;;11.93;8.32;;;;;;;19.12;37.94;101454.28;3572168;40;20406;-72
2021/06/26 04:41:19;;;;;;;12.35;8.82;;;;;;;19.12;37.67;101457.94;3576530;40;20041;-72
2021/06/26 04:43:47;;;;;;;12.25;8.68;;;;;;;19.13;37.59;101450.47;3577730;40;20049;-72
2021/06/26 04:46:16;;;;;;;12.55;8.60;;;;;;;19.12;37.52;101457.94;3576678;40;20045;-71
2021/06/26 04:48:46;;;;;;;11.68;8.82;;;;;;;19.15;38.27;101462.28;3571786;40;20053;-72
2021/06/26 04:51:14;;;;;;;12.52;9.32;;;;;;;19.13;37.98;101459.66;3575505;40;20062;-73
2021/06/26 04:53:42;;;;;;;11.30;8.82;;;;;;;19.14;37.88;101453.09;3574251;40;20127;-72
2021/06/26 04:56:11;;;;;;;11.52;8.63;;;;;;;19.14;37.89;101458.63;3577304;40;20067;-72
2021/06/26 04:58:39;;;;;;;12.00;8.35;;;;;;;19.16;37.99;101464.88;3574243;40;20049;-72
2021/06/26 05:01:08;;;;;;;12.13;8.90;;;;;;;19.17;37.95;101466.63;3577782;40;20051;-72
2021/06/26 05:03:39;;;;;;;13.90;9.18;;;;;;;19.18;38.64;101457.22;3576714;40;20060;-72
2021/06/26 05:06:08;;;;;;;12.35;8.68;;;;;;;19.22;38.48;101468.84;3577362;40;20405;-72
2021/06/26 05:08:36;;;;;;;12.48;9.60;;;;;;;19.22;38.63;101467.97;3574435;40;20054;-73
2021/06/26 05:11:06;;;;;;;11.43;8.27;;;;;;;19.22;38.18;101459.66;3575716;40;20057;-72
2021/06/26 05:13:34;;;;;;;10.85;8.48;;;;;;;19.22;38.42;101466.06;3575840;40;20158;-72
2021/06/26 05:16:04;;;;;;;11.48;8.65;;;;;;;19.24;38.72;101469.56;3564265;40;20374;-72
2021/06/26 05:18:33;;;;;;;12.38;8.90;;;;;;;19.25;38.56;101468.50;3557404;40;20052;-72
2021/06/26 05:21:01;;;;;;;12.05;9.10;;;;;;;19.28;38.22;101464.50;3576954;40;20056;-72
2021/06/26 05:23:31;;;;;;;12.02;9.15;;;;;;;19.31;38.27;101461.38;3577525;40;20108;-72
2021/06/26 05:26:00;;;;;;;14.35;9.75;;;;;;;19.31;38.81;101458.63;3576839;40;20138;-72
2021/06/26 05:28:28;;;;;;;13.07;9.50;;;;;;;19.33;38.33;101459.31;3575421;40;20076;-72
2021/06/26 05:30:56;;;;;;;13.27;8.77;;;;;;;19.35;38.67;101460.00;3567613;40;20345;-72
2021/06/26 05:33:24;;;;;;;11.63;8.70;;;;;;;19.38;38.68;101463.28;3571182;40;20434;-72
2021/06/26 05:35:53;;;;;;;12.10;8.75;;;;;;;19.40;38.80;101458.44;3575945;40;20053;-72
2021/06/26 05:38:21;;;;;;;13.75;9.73;;;;;;;19.44;38.88;101467.25;3578343;40;20037;-72
2021/06/26 05:40:50;;;;;;;12.73;9.60;;;;;;;19.49;38.68;101462.94;3577389;40;20409;-72
2021/06/26 05:43:19;;;;;;;12.88;9.60;;;;;;;19.51;38.74;101468.34;3572285;40;20385;-72
2021/06/26 05:45:47;;;;;;;13.77;9.65;;;;;;;19.55;39.18;101469.72;3580812;40;20063;-72
2021/06/26 05:48:15;;;;;;;14.20;9.30;;;;;;;19.59;39.05;101462.78;3577249;40;20427;-72
2021/06/26 05:50:44;;;;;;;11.75;8.77;;;;;;;19.62;38.82;101470.72;3565038;40;20053;-72
2021/06/26 05:53:12;;;;;;;13.55;9.35;;;;;;;19.68;38.73;101466.41;3563861;40;20045;-72
2021/06/26 05:55:41;;;;;;;12.00;9.30;;;;;;;19.72;39.28;101465.84;3575063;40;20132;-72
2021/06/26 05:58:11;;;;;;;13.30;9.63;;;;;;;19.79;39.27;101464.09;3566391;40;20048;-72
2021/06/26 06:00:39;;;;;;;12.93;9.45;;;;;;;19.85;39.29;101456.94;3574167;40;20052;-73
2021/06/26 06:03:07;;;;;;;14.93;9.80;;;;;;;19.93;39.01;101455.00;3577296;40;20053;-69
2021/06/26 06:05:35;;;;;;;13.93;9.20;;;;;;;20.01;38.84;101456.03;3577995;40;20325;-69
2021/06/26 06:08:04;;;;;;;12.90;8.90;;;;;;;20.10;38.41;101468.81;3575316;40;20116;-69
2021/06/26 06:10:33;;;;;;;12.15;8.88;;;;;;;20.15;38.63;101458.94;3577439;40;20299;-69
2021/06/26 06:13:02;;;;;;;11.15;8.38;;;;;;;20.23;38.28;101470.03;3569374;40;20060;-69
2021/06/26 06:15:32;;;;;;;11.52;8.52;;;;;;;20.32;37.92;101465.31;3578113;40;20055;-69
2021/06/26 06:18:01;;;;;;;12.13;8.85;;;;;;;20.37;37.89;101470.28;3576552;40;20044;-69
2021/06/26 06:20:29;;;;;;;9.32;7.30;;;;;;;20.42;37.69;101465.91;3576891;40;20049;-69
2021/06/26 06:22:58;;;;;;;10.90;8.45;;;;;;;20.48;37.84;101468.00;3567651;40;20068;-69
2021/06/26 06:25:27;;;;;;;9.82;7.78;;;;;;;20.54;37.56;101464.47;3576897;40;20053;-70
2021/06/26 06:27:56;;;;;;;9.70;7.22;;;;;;;20.62;37.56;101466.31;3572247;40;20053;-69
2021/06/26 06:30:26;;;;;;;10.75;7.82;;;;;;;20.69;37.36;101465.41;3577363;40;20049;-68
2021/06/26 06:32:55;;;;;;;9.00;6.50;;;;;;;20.76;37.21;101468.31;3578351;40;20049;-68
2021/06/26 06:35:24;;;;;;;8.70;6.82;;;;;;;20.81;36.87;101473.31;3577610;40;20048;-69
2021/06/26 06:37:54;;;;;;;8.15;6.70;;;;;;;20.87;36.63;101473.44;3577510;40;20139;-69
2021/06/26 06:40:22;;;;;;;9.43;7.63;;;;;;;20.94;36.48;101474.47;3566592;40;20061;-69
2021/06/26 06:42:51;;;;;;;9.20;7.13;;;;;;;21.00;36.76;101487.63;3577621;40;20061;-69
2021/06/26 06:45:20;;;;;;;8.77;6.80;;;;;;;21.05;36.71;101487.94;3575319;40;20044;-69
2021/06/26 06:47:48;;;;;;;9.68;6.82;;;;;;;21.12;36.73;101478.84;3574254;40;20049;-69
2021/06/26 06:50:18;;;;;;;8.73;6.85;;;;;;;21.20;36.67;101488.00;3561356;40;20131;-69
2021/06/26 06:52:46;;;;;;;7.68;6.32;;;;;;;21.25;36.67;101487.41;3571881;40;20048;-69
2021/06/26 06:55:14;;;;;;;8.15;6.70;;;;;;;21.33;36.55;101488.22;3570271;40;20053;-69
2021/06/26 06:57:43;;;;;;;13.38;6.95;;;;;;;21.41;36.49;101493.69;3574548;40;20049;-69
2021/06/26 07:00:13;;;;;;;9.20;6.80;;;;;;;21.51;36.31;101492.56;3564967;40;20131;-70
2021/06/26 07:02:42;;;;;;;8.30;6.80;;;;;;;21.55;36.16;101489.22;3572666;40;20053;-69
2021/06/26 07:05:11;;;;;;;9.27;7.13;;;;;;;21.64;36.15;101492.84;3572674;40;20037;-69
2021/06/26 07:07:41;;;;;;;9.07;7.63;;;;;;;21.72;35.63;101489.97;3576649;40;20056;-70
2021/06/26 07:10:11;;;;;;;8.93;6.53;;;;;;;21.78;35.60;101495.63;3568178;40;20038;-69
2021/06/26 07:12:39;;;;;;;9.27;6.57;;;;;;;21.86;35.80;101494.66;3577288;40;20025;-70
2021/06/26 07:15:10;;;;;;;8.85;7.20;;;;;;;21.94;35.57;101490.94;3574068;40;20030;-69
2021/06/26 07:17:39;;;;;;;9.50;7.78;;;;;;;22.01;35.83;101495.53;3570240;40;20065;-70
2021/06/26 07:20:08;;;;;;;10.23;7.90;;;;;;;22.10;35.45;101496.31;3561287;40;20038;-70
2021/06/26 07:22:38;;;;;;;8.95;7.25;;;;;;;22.15;35.72;101491.00;3576914;40;20323;-71
2021/06/26 07:25:12;;;;;;;8.40;6.70;;;;;;;22.27;34.79;101494.22;3576763;40;20037;-70
2021/06/26 07:27:40;;;;;;;9.35;7.05;;;;;;;22.31;35.88;101495.56;3576989;40;20428;-70
2021/06/26 07:30:10;;;;;;;9.80;7.30;;;;;;;22.39;35.05;101501.03;3574926;40;20063;-70
2021/06/26 07:32:39;;;;;;;9.00;7.00;;;;;;;22.46;35.06;101494.47;3575515;40;20041;-70
2021/06/26 07:35:08;;;;;;;8.98;7.28;;;;;;;22.55;34.98;101496.09;3573952;40;20072;-70
2021/06/26 07:37:38;;;;;;;10.68;7.60;;;;;;;22.62;34.92;101492.50;3574925;40;20045;-70
2021/06/26 07:40:07;;;;;;;9.18;7.43;;;;;;;22.68;34.86;101492.59;3574613;40;20068;-69
2021/06/26 07:42:38;;;;;;;9.75;7.13;;;;;;;22.76;35.24;101489.66;3577286;40;20088;-73
2021/06/26 07:45:08;;;;;;;9.18;6.78;;;;;;;22.82;34.82;101488.00;3571836;40;20068;-70
2021/06/26 07:47:36;;;;;;;10.65;7.65;;;;;;;22.87;35.36;101491.97;3573714;40;20045;-68
2021/06/26 07:50:06;;;;;;;8.90;7.10;;;;;;;22.97;34.93;101482.44;3572943;40;20072;-68
2021/06/26 07:52:36;;;;;;;10.57;7.28;;;;;;;23.00;34.80;101487.59;3580093;40;20078;-68
2021/06/26 07:55:07;;;;;;;9.43;7.40;;;;;;;23.11;34.41;101487.94;3576230;40;20401;-68
2021/06/26 07:57:39;;;;;;;8.05;6.30;;;;;;;23.17;34.40;101487.13;3575711;40;20061;-70
2021/06/26 08:00:11;;;;;;;8.00;6.97;;;;;;;23.25;34.60;101486.97;3576122;40;20084;-69
2021/06/26 08:02:42;;;;;;;10.63;7.85;;;;;;;23.32;34.35;101484.25;3559840;40;20052;-70
2021/06/26 08:05:11;;;;;;;11.07;8.48;;;;;;;23.40;34.13;101481.31;3576297;40;20137;-70
2021/06/26 08:08:03;;;;;;;10.20;7.95;;;;;;;23.44;34.09;101485.44;3562257;40;20310;-69
2021/06/26 08:10:34;;;;;;;10.60;7.93;;;;;;;23.55;33.89;101472.88;3577166;40;20057;-70
2021/06/26 08:13:04;;;;;;;10.05;7.45;;;;;;;23.61;33.58;101466.47;3577251;40;20052;-71
2021/06/26 08:15:36;;;;;;;8.57;7.20;;;;;;;23.63;33.88;101467.97;3573287;40;20056;-77
2021/06/26 08:18:12;;;;;;;10.05;7.85;;;;;;;23.69;33.73;101469.97;3564093;40;20031;-71
2021/06/26 08:20:41;;;;;;;10.65;8.20;;;;;;;23.74;33.81;101465.69;3570923;40;20040;-70
2021/06/26 08:23:11;;;;;;;10.90;7.97;;;;;;;23.79;33.41;101468.75;3575233;40;20068;-71
2021/06/26 08:25:41;;;;;;;10.48;7.95;;;;;;;23.81;33.84;101461.88;3572985;40;20053;-71
2021/06/26 08:28:14;;;;;;;9.95;7.55;;;;;;;23.92;33.73;101468.81;3575597;40;20594;-70
2021/06/26 08:30:51;;;;;;;10.85;8.40;;;;;;;23.94;33.34;101467.56;3573358;40;20053;-72
2021/06/26 08:33:23;;;;;;;9.50;7.47;;;;;;;23.97;33.43;101467.13;3574596;40;20056;-72
2021/06/26 08:35:51;;;;;;;11.43;8.38;;;;;;;24.03;33.28;101471.91;3577188;40;20088;-74
2021/06/26 08:38:19;;;;;;;11.35;7.70;;;;;;;24.07;33.28;101469.59;3575423;40;20299;-78
2021/06/26 08:40:53;;;;;;;11.13;7.88;;;;;;;24.12;33.16;101469.84;3575040;40;20378;-83
2021/06/26 08:43:24;;;;;;;10.15;7.43;;;;;;;24.18;33.14;101470.94;3575115;40;20465;-81
2021/06/26 08:45:56;;;;;;;9.93;7.75;;;;;;;24.19;32.72;101465.16;3571866;40;20069;-85
2021/06/26 08:48:29;;;;;;;10.15;8.43;;;;;;;24.23;32.93;101468.38;3580370;40;20049;-84
2021/06/26 08:50:58;;;;;;;8.95;7.25;;;;;;;24.28;32.99;101468.63;3564761;40;20099;-80
2021/06/26 08:53:26;;;;;;;10.50;7.80;;;;;;;24.31;32.72;101473.78;3571532;40;20092;-81
2021/06/26 08:56:09;;;;;;;10.90;7.97;;;;;;;24.38;32.52;101469.06;3570658;40;20059;-84
2021/06/26 09:03:26;;;;;;;9.32;6.95;;;;;;;24.41;32.98;101460.28;3567852;40;20033;-86
2021/06/26 09:06:07;;;;;;;10.30;7.20;;;;;;;24.49;33.40;101456.44;3568368;40;20036;-86
2021/06/26 09:08:51;;;;;;;12.48;7.57;;;;;;;24.54;33.01;101463.13;3571828;40;20037;-83
2021/06/26 09:11:20;;;;;;;9.82;7.40;;;;;;;24.61;32.96;101468.75;3565615;40;20061;-79
2021/06/26 09:13:54;;;;;;;11.18;7.85;;;;;;;24.67;33.01;101462.34;3563933;40;20430;-80
2021/06/26 09:16:22;;;;;;;11.07;8.32;;;;;;;24.73;32.49;101467.09;3578572;40;20138;-80
2021/06/26 09:18:54;;;;;;;11.00;7.82;;;;;;;24.81;32.13;101469.69;3580130;40;20290;-78
2021/06/26 09:21:30;;;;;;;9.82;8.27;;;;;;;24.85;31.98;101461.75;3572559;40;20056;-78
2021/06/26 09:24:04;;;;;;;9.15;7.60;;;;;;;24.92;31.42;101462.63;3567462;40;20085;-79
2021/06/26 09:26:33;;;;;;;9.93;7.72;;;;;;;24.92;31.39;101466.28;3562201;40;20040;-79
2021/06/26 09:29:11;;;;;;;8.95;7.47;;;;;;;24.99;31.08;101466.28;3555954;40;20357;-83
2021/06/26 09:31:54;;;;;;;8.43;6.82;;;;;;;25.00;30.99;101468.00;3564605;40;20041;-81
2021/06/26 09:34:37;;;;;;;9.70;7.35;;;;;;;25.04;30.69;101469.28;3568636;40;20065;-73
2021/06/26 09:37:08;;;;;;;10.10;7.97;;;;;;;25.06;31.17;101469.94;3560358;40;20065;-74
2021/06/26 09:39:38;;;;;;;9.63;7.82;;;;;;;25.09;30.85;101461.13;3579434;40;20402;-75
2021/06/26 09:42:16;;;;;;;9.80;7.60;;;;;;;25.14;30.62;101473.41;3578044;40;20074;-75
2021/06/26 09:44:49;;;;;;;9.18;7.10;;;;;;;25.17;30.47;101469.31;3577540;40;20052;-74
2021/06/26 09:47:30;;;;;;;9.82;7.10;;;;;;;25.22;30.56;101474.25;3574496;40;20127;-74
2021/06/26 09:50:11;;;;;;;10.52;7.13;;;;;;;25.24;30.76;101472.16;3574874;40;20376;-74
2021/06/26 09:52:45;;;;;;;10.27;8.18;;;;;;;25.27;31.00;101481.00;3571975;40;20096;-74
2021/06/26 09:55:16;;;;;;;10.20;7.95;;;;;;;25.32;31.03;101467.19;3575402;40;20159;-72
2021/06/26 09:57:45;;;;;;;11.25;8.25;;;;;;;25.35;31.06;101463.13;3574021;40;20049;-73
2021/06/26 10:00:17;;;;;;;9.32;7.65;;;;;;;25.43;30.61;101462.91;3578373;40;20394;-72
2021/06/26 10:02:45;;;;;;;10.83;8.97;;;;;;;25.44;30.58;101465.47;3573546;40;20072;-72
2021/06/26 10:05:17;;;;;;;10.32;8.35;;;;;;;25.54;30.55;101462.22;3565466;40;20298;-72
2021/06/26 10:07:47;;;;;;;;;;;;;;;25.26;31.58;101465.28;3577327;40;20107;-73
2021/06/26 10:10:19;;;;;;;9.85;7.20;;;;;;;25.59;30.78;101456.84;3575505;40;19941;-73
2021/06/26 10:12:48;;;;;;;8.52;6.70;;;;;;;25.66;30.26;101454.03;3574655;40;20033;-73
2021/06/26 10:15:18;;;;;;;8.43;6.70;;;;;;;25.74;30.25;101449.06;3574228;40;20774;-72
2021/06/26 10:17:46;;;;;;;10.10;7.00;;;;;;;25.79;30.30;101445.59;3574396;40;20057;-72
2021/06/26 10:20:19;;;;;;;8.60;6.85;;;;;;;25.88;29.59;101444.31;3572062;40;20057;-73
2021/06/26 10:22:49;;;;;;;9.90;7.60;;;;;;;25.92;29.46;101443.66;3564504;40;20057;-72
2021/06/26 10:25:20;;;;;;;8.40;6.63;;;;;;;25.97;29.41;101456.16;3567367;40;20068;-72
2021/06/26 10:28:02;;;;;;;8.95;6.60;;;;;;;26.02;28.94;101453.56;3574286;40;20045;-73
2021/06/26 10:30:32;;;;;;;8.07;6.63;;;;;;;26.05;29.30;101448.34;3574469;40;20394;-71
2021/06/26 10:33:03;;;;;;;7.38;6.32;;;;;;;26.11;28.91;101439.06;3558333;40;20053;-72
2021/06/26 10:35:36;;;;;;;8.70;6.32;;;;;;;26.17;29.02;101435.38;3576239;40;20598;-72
2021/06/26 10:38:07;;;;;;;7.03;5.93;;;;;;;26.21;28.87;101439.44;3576418;40;20048;-71
2021/06/26 10:40:42;;;;;;;8.98;6.80;;;;;;;26.24;28.14;101441.81;3574351;40;20057;-73
2021/06/26 10:43:17;;;;;;;9.35;6.70;;;;;;;26.30;28.48;101442.88;3575876;40;20495;-73
2021/06/26 10:45:45;;;;;;;8.18;6.60;;;;;;;26.32;28.51;101440.72;3577569;40;20060;-73
2021/06/26 10:48:18;;;;;;;8.75;6.97;;;;;;;26.38;28.68;101437.03;3566375;40;20052;-72
2021/06/26 10:50:51;;;;;;;8.75;6.75;;;;;;;26.44;28.38;101443.69;3578684;40;20106;-73
2021/06/26 10:53:28;;;;;;;8.43;6.93;;;;;;;26.49;28.15;101438.28;3562657;40;20395;-72
2021/06/26 10:56:03;;;;;;;7.40;5.90;;;;;;;26.51;26.94;101447.34;3574883;40;20083;-71
2021/06/26 10:58:34;;;;;;;5.75;5.00;;;;;;;26.51;27.08;101442.59;3575585;40;20071;-72
2021/06/26 11:01:17;;;;;;;6.30;5.03;;;;;;;26.54;26.51;101435.66;3574544;40;20049;-72
2021/06/26 11:03:50;;;;;;;7.28;5.72;;;;;;;26.54;26.00;101441.25;3574785;40;20060;-72
2021/06/26 11:06:26;;;;;;;7.65;5.80;;;;;;;26.54;26.41;101432.84;3574133;40;20134;-73
2021/06/26 11:09:00;;;;;;;6.28;5.07;;;;;;;26.54;26.46;101432.84;3573266;40;20052;-72
2021/06/26 11:11:40;;;;;;;8.18;6.00;;;;;;;26.54;26.80;101427.25;3576831;40;20057;-71
2021/06/26 11:14:10;;;;;;;6.95;5.47;;;;;;;26.54;26.13;101422.50;3567544;40;20041;-72
2021/06/26 11:16:41;;;;;;;6.43;4.65;;;;;;;26.55;26.23;101429.81;3577355;40;20048;-72
2021/06/26 11:19:11;;;;;;;5.97;4.68;;;;;;;26.52;26.76;101430.25;3574517;40;20496;-71
2021/06/26 11:21:43;;;;;;;6.80;4.93;;;;;;;26.55;26.14;101432.63;3581704;40;20130;-71
2021/06/26 11:24:15;;;;;;;5.80;4.38;;;;;;;26.52;26.42;101424.66;3564165;40;20049;-71
2021/06/26 11:26:48;;;;;;;6.45;4.97;;;;;;;26.54;26.12;101428.09;3578577;40;20104;-75
2021/06/26 11:29:30;;;;;;;7.03;5.25;;;;;;;26.52;25.66;101421.84;3575839;40;20133;-79
2021/06/26 11:32:00;;;;;;;7.63;5.88;;;;;;;26.49;25.81;101435.47;3572813;40;20039;-76
2021/06/26 11:34:30;;;;;;;7.50;5.95;;;;;;;26.45;26.12;101431.38;3577319;40;20057;-73
2021/06/26 11:37:05;;;;;;;7.20;5.53;;;;;;;26.46;25.67;101433.13;3555300;40;20060;-74
2021/06/26 11:39:35;;;;;;;7.57;6.05;;;;;;;26.41;25.94;101419.78;3567776;40;20052;-76
2021/06/26 11:42:15;;;;;;;7.63;5.80;;;;;;;26.42;25.52;101420.63;3574196;40;20074;-75
2021/06/26 11:44:44;;;;;;;8.75;6.03;;;;;;;26.38;25.56;101423.00;3576259;40;20036;-79